createdAt,value
2023-03-04T00:01:07.800Z,1.80
2023-03-04T00:03:37.219Z,2.00
2023-03-04T00:06:06.226Z,1.83
2023-03-04T00:08:35.104Z,1.77
2023-03-04T00:11:05.150Z,1.77
2023-03-04T00:13:34.029Z,1.70
2023-03-04T00:16:02.591Z,1.33
2023-03-04T00:18:31.112Z,2.20
2023-03-04T00:20:59.661Z,2.03
2023-03-04T00:23:28.146Z,2.03
2023-03-04T00:25:56.662Z,1.47
2023-03-04T00:28:26.569Z,1.40
2023-03-04T00:30:55.049Z,2.40
2023-03-04T00:33:23.548Z,2.07
2023-03-04T00:35:52.398Z,2.03
2023-03-04T00:38:20.898Z,2.33
2023-03-04T00:40:49.463Z,1.40
2023-03-04T00:43:18.370Z,1.40
2023-03-04T00:45:48.424Z,1.13
2023-03-04T00:48:17.364Z,1.43
2023-03-04T00:50:46.116Z,1.70
2023-03-04T00:53:14.600Z,1.47
2023-03-04T00:55:43.086Z,1.77
2023-03-04T00:58:11.813Z,2.33
2023-03-04T01:00:40.386Z,1.33
2023-03-04T01:03:10.222Z,1.70
2023-03-04T01:05:38.782Z,2.03
2023-03-04T01:08:07.890Z,1.47
2023-03-04T01:10:36.434Z,2.53
2023-03-04T01:13:04.959Z,2.03
2023-03-04T01:15:33.606Z,1.40
2023-03-04T01:18:02.317Z,1.20
2023-03-04T01:20:32.349Z,1.37
2023-03-04T01:23:00.864Z,1.90
2023-03-04T01:25:29.378Z,1.67
2023-03-04T01:27:57.922Z,2.30
2023-03-04T01:30:26.409Z,1.70
2023-03-04T01:32:54.917Z,1.27
2023-03-04T01:35:23.444Z,1.67
2023-03-04T01:37:53.317Z,1.67
2023-03-04T01:40:22.313Z,2.00
2023-03-04T01:42:50.814Z,1.70
2023-03-04T01:45:21.216Z,1.37
2023-03-04T01:47:51.000Z,1.77
2023-03-04T01:50:23.405Z,1.63
2023-03-04T01:52:53.329Z,2.03
2023-03-04T01:55:23.803Z,1.30
2023-03-04T01:57:53.461Z,1.60
2023-03-04T02:00:32.027Z,1.60
2023-03-04T02:03:03.341Z,2.83
2023-03-04T02:05:32.460Z,1.50
2023-03-04T02:08:03.726Z,2.30
2023-03-04T02:10:33.119Z,1.10
2023-03-04T02:13:02.890Z,1.50
2023-03-04T02:15:32.135Z,1.57
2023-03-04T02:18:01.152Z,1.50
2023-03-04T02:20:41.495Z,2.07
2023-03-04T02:23:17.494Z,1.63
2023-03-04T02:25:50.375Z,2.13
2023-03-04T02:28:20.510Z,1.60
2023-03-04T02:30:49.541Z,1.27
2023-03-04T02:33:19.583Z,1.47
2023-03-04T02:35:48.591Z,2.03
2023-03-04T02:38:17.298Z,0.93
2023-03-04T02:40:50.670Z,1.43
2023-03-04T02:43:20.973Z,1.73
2023-03-04T02:45:51.987Z,1.50
2023-03-04T02:48:24.018Z,1.60
2023-03-04T02:50:54.527Z,1.30
2023-03-04T02:53:25.324Z,1.50
2023-03-04T02:55:54.410Z,1.60
2023-03-04T02:58:26.569Z,1.77
2023-03-04T03:00:55.031Z,1.10
2023-03-04T03:03:23.600Z,1.77
2023-03-04T03:05:52.196Z,1.53
2023-03-04T03:08:20.879Z,1.60
2023-03-04T03:10:49.459Z,1.70
2023-03-04T03:13:19.205Z,1.27
2023-03-04T03:15:50.136Z,1.10
2023-03-04T03:18:19.080Z,2.00
2023-03-04T03:20:47.798Z,1.63
2023-03-04T03:23:18.017Z,2.03
2023-03-04T03:25:46.508Z,2.23
2023-03-04T03:28:14.978Z,1.17
2023-03-04T03:30:43.729Z,1.40
2023-03-04T03:33:13.565Z,1.30
2023-03-04T03:35:42.231Z,1.60
2023-03-04T03:38:10.969Z,2.07
2023-03-04T03:40:39.465Z,1.50
2023-03-04T03:43:08.113Z,1.83
2023-03-04T03:45:36.774Z,2.10
2023-03-04T03:48:06.080Z,1.60
2023-03-04T03:50:35.972Z,1.43
2023-03-04T03:53:04.946Z,1.57
2023-03-04T03:55:34.057Z,1.47
2023-03-04T03:58:02.685Z,1.00
2023-03-04T04:00:31.255Z,1.77
2023-03-04T04:03:01.877Z,0.80
2023-03-04T04:05:30.493Z,1.80
2023-03-04T04:08:00.381Z,1.13
2023-03-04T04:10:29.054Z,1.13
2023-03-04T04:12:57.608Z,1.27
2023-03-04T04:15:26.078Z,0.90
2023-03-04T04:17:54.575Z,1.37
2023-03-04T04:20:26.148Z,1.37
2023-03-04T04:22:54.977Z,1.33
2023-03-04T04:25:25.084Z,1.83
2023-03-04T04:27:53.662Z,1.43
2023-03-04T04:30:22.350Z,1.13
2023-03-04T04:32:50.852Z,1.50
2023-03-04T04:35:20.105Z,1.23
2023-03-04T04:37:48.977Z,1.30
2023-03-04T04:40:17.798Z,1.50
2023-03-04T04:42:47.741Z,1.90
2023-03-04T04:45:16.524Z,1.50
2023-03-04T04:47:45.281Z,1.50
2023-03-04T04:50:13.968Z,0.67
2023-03-04T04:52:42.534Z,1.33
2023-03-04T04:55:12.202Z,1.27
2023-03-04T04:57:40.801Z,1.47
2023-03-04T05:00:12.501Z,1.17
2023-03-04T05:02:41.648Z,1.00
2023-03-04T05:05:10.545Z,1.50
2023-03-04T05:07:39.215Z,1.37
2023-03-04T05:10:08.586Z,1.53
2023-03-04T05:12:37.193Z,1.60
2023-03-04T05:15:06.471Z,1.40
2023-03-04T05:17:36.411Z,1.50
2023-03-04T05:20:07.148Z,1.17
2023-03-04T05:22:35.821Z,1.20
2023-03-04T05:25:04.493Z,1.40
2023-03-04T05:27:33.083Z,1.00
2023-03-04T05:30:01.561Z,1.20
2023-03-04T05:32:30.142Z,1.13
2023-03-04T05:35:00.227Z,1.33
2023-03-04T05:37:28.762Z,0.80
2023-03-04T05:39:57.391Z,1.30
2023-03-04T05:42:26.162Z,1.37
2023-03-04T05:44:54.761Z,0.80
2023-03-04T05:47:23.491Z,1.50
2023-03-04T05:49:52.102Z,1.80
2023-03-04T05:52:22.075Z,1.27
2023-03-04T05:54:50.768Z,1.20
2023-03-04T05:57:19.226Z,1.40
2023-03-04T05:59:47.751Z,1.03
2023-03-04T06:02:16.317Z,1.20
2023-03-04T06:04:44.961Z,0.90
2023-03-04T06:07:13.426Z,1.37
2023-03-04T06:09:45.109Z,0.97
2023-03-04T06:12:13.955Z,1.27
2023-03-04T06:14:42.466Z,1.20
2023-03-04T06:17:10.973Z,1.30
2023-03-04T06:19:41.765Z,1.40
2023-03-04T06:22:11.288Z,1.70
2023-03-04T06:24:39.870Z,1.43
2023-03-04T06:27:09.838Z,1.63
2023-03-04T06:29:38.410Z,1.10
2023-03-04T06:32:07.145Z,1.50
2023-03-04T06:34:36.229Z,1.50
2023-03-04T06:37:04.936Z,1.33
2023-03-04T06:39:33.684Z,1.90
2023-03-04T06:42:02.414Z,1.20
2023-03-04T06:44:32.808Z,1.30
2023-03-04T06:47:01.328Z,1.47
2023-03-04T06:49:30.133Z,1.50
2023-03-04T06:51:58.608Z,1.53
2023-03-04T06:54:27.078Z,0.90
2023-03-04T06:56:55.642Z,1.60
2023-03-04T06:59:24.182Z,2.43
2023-03-04T07:01:54.103Z,1.30
2023-03-04T07:04:23.844Z,2.80
2023-03-04T07:06:52.601Z,1.37
2023-03-04T07:09:21.189Z,1.67
2023-03-04T07:11:49.681Z,1.10
2023-03-04T07:14:18.126Z,1.20
2023-03-04T07:16:46.685Z,1.40
2023-03-04T07:19:16.781Z,1.37
2023-03-04T07:21:45.487Z,0.90
2023-03-04T07:24:14.110Z,1.10
2023-03-04T07:26:42.749Z,0.83
2023-03-04T07:29:11.450Z,1.20
2023-03-04T07:31:40.376Z,1.50
2023-03-04T07:34:13.254Z,1.37
2023-03-04T07:36:43.564Z,1.13
2023-03-04T07:39:13.110Z,0.90
2023-03-04T07:41:42.326Z,1.20
2023-03-04T07:44:13.434Z,0.83
2023-03-04T07:46:42.217Z,1.10
2023-03-04T07:49:13.313Z,2.03
2023-03-04T07:51:43.361Z,1.07
2023-03-04T07:54:12.246Z,0.90
2023-03-04T07:56:40.894Z,1.10
2023-03-04T07:59:09.441Z,1.20
2023-03-04T08:01:39.027Z,1.40
2023-03-04T08:04:08.702Z,1.47
2023-03-04T08:06:37.558Z,0.93
2023-03-04T08:09:09.312Z,1.17
2023-03-04T08:11:39.498Z,1.20
2023-03-04T08:14:09.249Z,0.87
2023-03-04T08:16:37.850Z,1.00
2023-03-04T08:19:08.831Z,1.20
2023-03-04T08:21:37.602Z,1.60
2023-03-04T08:24:11.638Z,1.03
2023-03-04T08:26:43.383Z,1.20
2023-03-04T08:29:14.361Z,1.00
2023-03-04T08:31:46.832Z,1.00
2023-03-04T08:34:17.737Z,1.00
2023-03-04T08:36:46.577Z,0.63
2023-03-04T08:39:18.714Z,1.30
2023-03-04T08:41:48.092Z,0.93
2023-03-04T08:44:17.163Z,0.90
2023-03-04T08:46:45.889Z,1.10
2023-03-04T08:49:15.418Z,0.60
2023-03-04T08:51:45.274Z,1.00
2023-03-04T08:54:14.227Z,0.80
2023-03-04T08:56:44.414Z,0.63
2023-03-04T08:59:13.047Z,0.70
2023-03-04T09:01:41.729Z,0.80
2023-03-04T09:04:10.536Z,1.00
2023-03-04T09:06:39.130Z,0.97
2023-03-04T09:09:07.675Z,1.03
2023-03-04T09:11:36.870Z,0.70
2023-03-04T09:14:06.898Z,0.83
2023-03-04T09:16:35.512Z,0.80
2023-03-04T09:19:04.052Z,0.80
2023-03-04T09:21:32.653Z,0.60
2023-03-04T09:24:01.108Z,0.40
2023-03-04T09:26:30.923Z,1.07
2023-03-04T09:29:00.916Z,2.20
2023-03-04T09:31:31.341Z,1.03
2023-03-04T09:34:01.043Z,0.53
2023-03-04T09:36:29.681Z,0.70
2023-03-04T09:39:01.422Z,0.90
2023-03-04T09:41:38.346Z,0.80
2023-03-04T09:44:14.926Z,0.80
2023-03-04T09:46:46.349Z,0.50
2023-03-04T09:49:16.994Z,0.50
2023-03-04T09:51:56.702Z,0.53
2023-03-04T09:54:54.310Z,0.80
2023-03-04T09:57:29.369Z,0.47
2023-03-04T10:00:08.251Z,0.53
2023-03-04T10:03:06.234Z,0.50
2023-03-04T10:05:39.085Z,0.50
2023-03-04T10:08:42.050Z,0.70
2023-03-04T10:11:15.991Z,0.60
2023-03-04T10:14:00.643Z,0.70
2023-03-04T10:16:35.650Z,0.97
2023-03-04T10:19:23.561Z,0.63
2023-03-04T10:21:53.389Z,0.83
2023-03-04T10:24:25.148Z,0.93
2023-03-04T10:26:56.953Z,0.83
2023-03-04T10:29:25.823Z,0.77
2023-03-04T10:31:56.058Z,0.57
2023-03-04T10:34:26.477Z,0.40
2023-03-04T10:37:00.792Z,0.60
2023-03-04T10:39:32.395Z,0.63
2023-03-04T10:42:03.526Z,0.73
2023-03-04T10:44:33.835Z,0.80
2023-03-04T10:47:02.991Z,0.40
2023-03-04T10:49:33.157Z,0.70
2023-03-04T10:52:15.519Z,0.70
2023-03-04T10:54:49.897Z,0.70
2023-03-04T10:57:20.538Z,0.70
2023-03-04T10:59:53.344Z,0.53
2023-03-04T11:02:27.910Z,0.53
2023-03-04T11:05:07.474Z,0.93
2023-03-04T11:07:54.550Z,0.70
2023-03-04T11:10:26.087Z,0.60
2023-03-04T11:13:00.905Z,0.63
2023-03-04T11:15:32.086Z,0.57
2023-03-04T11:18:03.777Z,0.53
2023-03-04T11:20:37.970Z,0.80
2023-03-04T11:23:13.984Z,1.23
2023-03-04T11:25:45.438Z,1.00
2023-03-04T11:28:19.917Z,0.93
2023-03-04T11:30:52.121Z,0.90
2023-03-04T11:33:28.850Z,1.10
2023-03-04T11:36:14.100Z,1.10
2023-03-04T11:38:47.883Z,0.97
2023-03-04T11:41:20.171Z,0.60
2023-03-04T11:43:49.253Z,0.70
2023-03-04T11:46:43.777Z,1.30
2023-03-04T11:49:32.349Z,0.70
2023-03-04T11:52:11.434Z,1.13
2023-03-04T11:54:49.149Z,1.73
2023-03-04T11:57:28.782Z,1.70
2023-03-04T12:00:10.064Z,0.90
2023-03-04T12:02:48.692Z,2.23
2023-03-04T12:05:30.459Z,1.70
2023-03-04T12:08:29.506Z,1.37
2023-03-04T12:11:04.177Z,1.17
2023-03-04T12:13:53.642Z,1.17
2023-03-04T12:16:34.720Z,1.53
2023-03-04T12:19:16.216Z,1.50
2023-03-04T12:22:09.595Z,0.83
2023-03-04T12:25:03.009Z,0.80
2023-03-04T12:27:37.676Z,1.40
2023-03-04T12:30:18.354Z,1.30
2023-03-04T12:32:57.749Z,1.60
2023-03-04T12:35:34.741Z,2.20
2023-03-04T12:38:26.042Z,1.27
2023-03-04T12:41:02.740Z,1.67
2023-03-04T12:43:41.411Z,1.63
2023-03-04T12:46:21.553Z,1.50
2023-03-04T12:49:03.642Z,2.40
2023-03-04T12:51:37.181Z,2.10
2023-03-04T12:54:22.082Z,1.07
2023-03-04T12:56:55.586Z,1.43
2023-03-04T12:59:27.553Z,1.27
2023-03-04T13:02:07.205Z,1.73
2023-03-04T13:04:47.765Z,1.20
2023-03-04T13:07:23.293Z,1.30
2023-03-04T13:09:58.504Z,1.20
2023-03-04T13:12:28.386Z,1.70
2023-03-04T13:15:18.537Z,0.63
2023-03-04T13:17:50.213Z,1.33
2023-03-04T13:20:25.878Z,2.00
2023-03-04T13:22:59.347Z,2.00
2023-03-04T13:25:42.284Z,1.30
2023-03-04T13:28:23.947Z,2.60
2023-03-04T13:31:18.232Z,1.73
2023-03-04T13:33:56.054Z,1.90
2023-03-04T13:36:52.660Z,1.40
2023-03-04T13:39:30.366Z,1.93
2023-03-04T13:41:59.308Z,1.40
2023-03-04T13:44:51.727Z,1.70
2023-03-04T13:47:23.558Z,1.40
2023-03-04T13:50:12.104Z,1.97
2023-03-04T13:52:44.232Z,1.30
2023-03-04T13:55:36.629Z,1.57
2023-03-04T13:58:19.026Z,1.57
2023-03-04T14:00:54.612Z,1.13
2023-03-04T14:03:25.691Z,1.67
2023-03-04T14:06:28.312Z,1.43
2023-03-04T14:08:57.917Z,1.13
2023-03-04T14:11:31.523Z,1.27
2023-03-04T14:14:01.656Z,1.13
2023-03-04T14:16:36.973Z,0.87
2023-03-04T14:19:07.580Z,1.20
2023-03-04T14:21:37.785Z,1.07
2023-03-04T14:24:09.637Z,0.57
2023-03-04T14:26:39.166Z,1.47
2023-03-04T14:29:22.483Z,1.30
2023-03-04T14:31:53.286Z,1.60
2023-03-04T14:34:29.650Z,1.20
2023-03-04T14:36:58.281Z,0.77
2023-03-04T14:39:28.266Z,0.90
2023-03-04T14:42:01.097Z,1.03
2023-03-04T14:44:36.023Z,1.03
2023-03-04T14:47:17.212Z,1.00
2023-03-04T14:49:46.342Z,0.73
2023-03-04T14:52:37.845Z,0.93
2023-03-04T14:55:25.218Z,0.60
2023-03-04T14:57:58.396Z,1.00
2023-03-04T15:00:31.117Z,0.60
2023-03-04T15:03:02.667Z,0.60
2023-03-04T15:05:33.298Z,1.00
2023-03-04T15:08:03.659Z,0.87
2023-03-04T15:10:34.906Z,0.80
2023-03-04T15:13:05.323Z,0.50
2023-03-04T15:15:41.070Z,0.93
2023-03-04T15:18:26.241Z,1.10
2023-03-04T15:20:56.814Z,1.20
2023-03-04T15:23:25.757Z,0.80
2023-03-04T15:25:55.737Z,1.00
2023-03-04T15:28:25.102Z,0.70
2023-03-04T15:30:54.486Z,1.07
2023-03-04T15:33:25.792Z,0.90
2023-03-04T15:35:57.238Z,0.57
2023-03-04T15:38:26.598Z,0.80
2023-03-04T15:40:56.441Z,0.80
2023-03-04T15:43:25.182Z,0.60
2023-03-04T15:45:54.830Z,0.60
2023-03-04T15:48:24.828Z,0.97
2023-03-04T15:50:57.348Z,0.50
2023-03-04T15:53:33.357Z,0.70
2023-03-04T15:56:02.765Z,0.80
2023-03-04T15:58:34.866Z,2.13
2023-03-04T16:01:03.917Z,0.40
2023-03-04T16:03:33.807Z,0.93
2023-03-04T16:06:02.400Z,1.03
2023-03-04T16:08:30.939Z,0.83
2023-03-04T16:10:59.453Z,1.47
2023-03-04T16:13:27.981Z,1.23
2023-03-04T16:15:56.572Z,1.93
2023-03-04T16:18:25.185Z,1.17
2023-03-04T16:20:55.153Z,0.90
2023-03-04T16:23:25.637Z,1.17
2023-03-04T16:25:56.773Z,1.20
2023-03-04T16:28:25.402Z,1.33
2023-03-04T16:30:53.943Z,2.00
2023-03-04T16:33:22.397Z,1.70
2023-03-04T16:35:51.791Z,1.00
2023-03-04T16:38:26.114Z,1.20
2023-03-04T16:40:55.542Z,1.00
2023-03-04T16:43:24.294Z,1.17
2023-03-04T16:45:53.110Z,1.33
2023-03-04T16:48:21.581Z,1.17
2023-03-04T16:50:50.204Z,1.13
2023-03-04T16:53:30.576Z,1.27
2023-03-04T16:55:59.716Z,1.37
2023-03-04T16:58:28.282Z,1.20
2023-03-04T17:00:56.880Z,1.43
2023-03-04T17:03:25.551Z,1.63
2023-03-04T17:05:54.097Z,1.20
2023-03-04T17:08:22.758Z,1.30
2023-03-04T17:10:53.319Z,2.43
2023-03-04T17:13:21.783Z,1.20
2023-03-04T17:15:50.286Z,1.03
2023-03-04T17:18:18.869Z,2.80
2023-03-04T17:20:47.439Z,1.80
2023-03-04T17:23:15.986Z,1.93
2023-03-04T17:25:44.488Z,2.10
2023-03-04T17:28:14.339Z,1.83
2023-03-04T17:30:42.878Z,1.53
2023-03-04T17:33:11.426Z,1.63
2023-03-04T17:35:40.645Z,2.20
2023-03-04T17:38:09.210Z,1.43
2023-03-04T17:40:37.703Z,2.00
2023-03-04T17:43:11.289Z,2.03
2023-03-04T17:45:42.277Z,2.73
2023-03-04T17:48:14.976Z,1.17
2023-03-04T17:50:49.776Z,1.57
2023-03-04T17:53:19.100Z,1.70
2023-03-04T17:55:51.197Z,1.47
2023-03-04T17:58:20.001Z,2.40
2023-03-04T18:00:50.871Z,3.00
2023-03-04T18:03:19.783Z,7.60
2023-03-04T18:05:48.435Z,2.03
2023-03-04T18:08:16.951Z,2.37
2023-03-04T18:10:45.614Z,1.43
2023-03-04T18:13:14.117Z,2.17
2023-03-04T18:15:42.669Z,2.17
2023-03-04T18:18:12.712Z,2.53
2023-03-04T18:20:41.462Z,2.73
2023-03-04T18:23:10.156Z,2.37
2023-03-04T18:25:38.805Z,2.73
2023-03-04T18:28:07.613Z,1.00
2023-03-04T18:30:36.090Z,1.70
2023-03-04T18:33:04.683Z,2.20
2023-03-04T18:35:34.668Z,1.20
2023-03-04T18:38:03.266Z,1.60
2023-03-04T18:40:31.847Z,1.90
2023-03-04T18:43:00.402Z,1.97
2023-03-04T18:45:28.930Z,1.50
2023-03-04T18:47:58.507Z,1.97
2023-03-04T18:50:27.199Z,1.50
2023-03-04T18:52:57.022Z,1.70
2023-03-04T18:55:26.638Z,1.27
2023-03-04T18:57:57.951Z,1.80
2023-03-04T19:00:26.758Z,2.00
2023-03-04T19:02:59.486Z,2.00
2023-03-04T19:05:31.413Z,2.13
2023-03-04T19:08:01.706Z,1.90
2023-03-04T19:10:30.339Z,1.97
2023-03-04T19:12:59.597Z,1.57
2023-03-04T19:15:28.654Z,1.77
2023-03-04T19:17:57.217Z,1.93
2023-03-04T19:20:25.771Z,2.00
2023-03-04T19:22:54.220Z,1.87
2023-03-04T19:25:24.202Z,2.40
2023-03-04T19:27:55.288Z,1.40
2023-03-04T19:30:23.954Z,1.83
2023-03-04T19:32:52.480Z,1.57
2023-03-04T19:35:21.012Z,2.50
2023-03-04T19:37:49.745Z,2.07
2023-03-04T19:40:18.336Z,2.70
2023-03-04T19:42:48.892Z,2.60
2023-03-04T19:45:17.494Z,3.07
2023-03-04T19:47:45.925Z,3.93
2023-03-04T19:50:14.691Z,6.07
2023-03-04T19:52:43.264Z,4.50
2023-03-04T19:55:13.731Z,3.70
2023-03-04T19:57:42.878Z,3.00
2023-03-04T20:00:15.003Z,2.93
2023-03-04T20:02:45.580Z,2.60
2023-03-04T20:05:14.078Z,3.63
2023-03-04T20:07:43.751Z,2.50
2023-03-04T20:10:14.335Z,4.00
2023-03-04T20:12:42.845Z,1.83
2023-03-04T20:15:13.456Z,1.70
2023-03-04T20:17:41.947Z,2.83
2023-03-04T20:20:12.484Z,1.83
2023-03-04T20:22:41.338Z,2.90
2023-03-04T20:25:10.346Z,1.77
2023-03-04T20:27:38.875Z,1.70
2023-03-04T20:30:08.550Z,3.83
2023-03-04T20:32:38.467Z,2.10
2023-03-04T20:35:10.946Z,2.30
2023-03-04T20:37:39.400Z,2.20
2023-03-04T20:40:08.804Z,2.43
2023-03-04T20:42:37.318Z,3.27
2023-03-04T20:45:06.959Z,2.37
2023-03-04T20:47:37.306Z,2.13
2023-03-04T20:50:09.543Z,2.40
2023-03-04T20:52:38.120Z,1.90
2023-03-04T20:55:07.564Z,1.93
2023-03-04T20:57:36.076Z,2.30
2023-03-04T21:00:05.745Z,1.30
2023-03-04T21:02:34.329Z,2.30
2023-03-04T21:05:02.775Z,2.37
2023-03-04T21:07:32.677Z,1.97
2023-03-04T21:10:02.878Z,2.43
2023-03-04T21:12:31.421Z,1.67
2023-03-04T21:14:59.983Z,1.97
2023-03-04T21:17:28.547Z,2.37
2023-03-04T21:19:56.992Z,1.57
2023-03-04T21:22:26.914Z,2.57
2023-03-04T21:24:56.850Z,2.47
2023-03-04T21:27:25.572Z,1.90
2023-03-04T21:29:54.077Z,1.97
2023-03-04T21:32:26.199Z,2.87
2023-03-04T21:34:55.867Z,3.10
2023-03-04T21:37:26.396Z,3.17
2023-03-04T21:39:58.081Z,4.03
2023-03-04T21:42:26.894Z,2.40
2023-03-04T21:44:55.676Z,3.43
2023-03-04T21:47:24.150Z,3.40
2023-03-04T21:49:52.804Z,2.37
2023-03-04T21:52:22.430Z,1.80
2023-03-04T21:54:50.935Z,2.53
2023-03-04T21:57:21.069Z,1.83
2023-03-04T21:59:49.875Z,2.47
2023-03-04T22:02:20.226Z,2.23
2023-03-04T22:04:49.351Z,1.73
2023-03-04T22:07:18.295Z,2.30
2023-03-04T22:09:46.960Z,2.47
2023-03-04T22:12:16.997Z,1.80
2023-03-04T22:14:48.230Z,1.27
2023-03-04T22:17:16.897Z,2.27
2023-03-04T22:19:45.578Z,2.43
2023-03-04T22:22:14.058Z,2.30
2023-03-04T22:24:42.770Z,2.00
2023-03-04T22:27:11.263Z,1.43
2023-03-04T22:29:39.818Z,2.20
2023-03-04T22:32:09.712Z,1.63
2023-03-04T22:34:38.240Z,2.40
2023-03-04T22:37:06.723Z,2.10
2023-03-04T22:39:35.292Z,1.80
2023-03-04T22:42:03.843Z,1.80
2023-03-04T22:44:32.456Z,1.53
2023-03-04T22:47:00.906Z,1.57
2023-03-04T22:49:30.867Z,1.53
2023-03-04T22:51:59.326Z,2.43
2023-03-04T22:54:29.585Z,1.73
2023-03-04T22:56:58.190Z,1.57
2023-03-04T22:59:26.667Z,1.50
2023-03-04T23:01:55.728Z,1.63
2023-03-04T23:04:24.336Z,2.03
2023-03-04T23:06:54.245Z,1.57
2023-03-04T23:09:22.708Z,1.60
2023-03-04T23:11:51.244Z,1.80
2023-03-04T23:14:19.860Z,2.20
2023-03-04T23:16:49.306Z,1.80
2023-03-04T23:19:21.188Z,2.73
2023-03-04T23:21:49.749Z,2.37
2023-03-04T23:24:20.454Z,1.60
2023-03-04T23:26:49.041Z,2.13
2023-03-04T23:29:17.889Z,3.17
2023-03-04T23:31:46.334Z,3.20
2023-03-04T23:34:17.613Z,1.97
2023-03-04T23:36:46.168Z,1.90
2023-03-04T23:39:14.650Z,1.60
2023-03-04T23:41:44.457Z,2.10
2023-03-04T23:44:13.867Z,2.03
2023-03-04T23:46:42.421Z,1.63
2023-03-04T23:49:13.995Z,2.80
2023-03-04T23:51:44.242Z,2.50
2023-03-04T23:54:13.047Z,1.93
2023-03-04T23:56:41.943Z,1.43
2023-03-04T23:59:12.888Z,1.80
